sensor_id;sensor_type;location;lat;lon;timestamp;P1;durP1;ratioP1;P2;durP2;ratioP2
68577;SDS011;61668;45.388;11.784;2022-07-17T00:00:26;8.70;;;4.10;;
68577;SDS011;61668;45.388;11.784;2022-07-17T00:02:52;10.00;;;4.30;;
68577;SDS011;61668;45.388;11.784;2022-07-17T00:05:18;8.40;;;3.90;;
68577;SDS011;61668;45.388;11.784;2022-07-17T00:07:43;9.20;;;4.30;;
68577;SDS011;61668;45.388;11.784;2022-07-17T00:10:12;9.00;;;4.70;;
68577;SDS011;61668;45.388;11.784;2022-07-17T00:12:37;9.60;;;4.40;;
68577;SDS011;61668;45.388;11.784;2022-07-17T00:15:03;8.80;;;3.80;;
68577;SDS011;61668;45.388;11.784;2022-07-17T00:17:29;8.30;;;4.10;;
68577;SDS011;61668;45.388;11.784;2022-07-17T00:19:55;10.40;;;4.70;;
68577;SDS011;61668;45.388;11.784;2022-07-17T00:22:21;8.60;;;4.30;;
68577;SDS011;61668;45.388;11.784;2022-07-17T00:24:46;10.30;;;3.90;;
68577;SDS011;61668;45.388;11.784;2022-07-17T00:27:12;10.30;;;4.90;;
68577;SDS011;61668;45.388;11.784;2022-07-17T00:29:37;10.60;;;4.20;;
68577;SDS011;61668;45.388;11.784;2022-07-17T00:32:03;9.00;;;4.90;;
68577;SDS011;61668;45.388;11.784;2022-07-17T00:34:29;10.20;;;4.60;;
68577;SDS011;61668;45.388;11.784;2022-07-17T00:36:54;10.50;;;4.30;;
68577;SDS011;61668;45.388;11.784;2022-07-17T00:39:20;8.80;;;4.40;;
68577;SDS011;61668;45.388;11.784;2022-07-17T00:41:46;10.60;;;4.20;;
68577;SDS011;61668;45.388;11.784;2022-07-17T00:44:12;9.60;;;3.80;;
68577;SDS011;61668;45.388;11.784;2022-07-17T00:46:38;9.10;;;4.60;;
68577;SDS011;61668;45.388;11.784;2022-07-17T00:49:05;10.50;;;4.40;;
68577;SDS011;61668;45.388;11.784;2022-07-17T00:51:32;9.30;;;4.30;;
68577;SDS011;61668;45.388;11.784;2022-07-17T00:53:58;8.90;;;4.20;;
68577;SDS011;61668;45.388;11.784;2022-07-17T00:56:25;9.00;;;3.70;;
68577;SDS011;61668;45.388;11.784;2022-07-17T00:58:52;7.90;;;3.40;;
68577;SDS011;61668;45.388;11.784;2022-07-17T01:01:18;7.90;;;3.40;;
68577;SDS011;61668;45.388;11.784;2022-07-17T01:03:44;8.60;;;3.20;;
68577;SDS011;61668;45.388;11.784;2022-07-17T01:06:09;7.20;;;3.20;;
68577;SDS011;61668;45.388;11.784;2022-07-17T01:08:36;8.20;;;3.00;;
68577;SDS011;61668;45.388;11.784;2022-07-17T01:11:03;7.80;;;3.30;;
68577;SDS011;61668;45.388;11.784;2022-07-17T01:13:31;7.30;;;3.00;;
68577;SDS011;61668;45.388;11.784;2022-07-17T01:15:57;7.30;;;2.90;;
68577;SDS011;61668;45.388;11.784;2022-07-17T01:18:23;9.00;;;3.90;;
68577;SDS011;61668;45.388;11.784;2022-07-17T01:20:49;9.20;;;3.90;;
68577;SDS011;61668;45.388;11.784;2022-07-17T01:23:17;10.50;;;4.60;;
68577;SDS011;61668;45.388;11.784;2022-07-17T01:25:44;8.80;;;5.30;;
68577;SDS011;61668;45.388;11.784;2022-07-17T01:28:11;10.70;;;5.50;;
68577;SDS011;61668;45.388;11.784;2022-07-17T01:30:45;9.30;;;4.90;;
68577;SDS011;61668;45.388;11.784;2022-07-17T01:33:11;10.30;;;4.90;;
68577;SDS011;61668;45.388;11.784;2022-07-17T01:35:37;10.00;;;5.10;;
68577;SDS011;61668;45.388;11.784;2022-07-17T01:38:02;10.80;;;4.30;;
68577;SDS011;61668;45.388;11.784;2022-07-17T01:40:28;10.70;;;4.90;;
68577;SDS011;61668;45.388;11.784;2022-07-17T01:42:53;10.40;;;5.60;;
68577;SDS011;61668;45.388;11.784;2022-07-17T01:45:19;9.60;;;4.70;;
68577;SDS011;61668;45.388;11.784;2022-07-17T01:47:45;9.20;;;4.50;;
68577;SDS011;61668;45.388;11.784;2022-07-17T01:50:12;9.70;;;5.20;;
68577;SDS011;61668;45.388;11.784;2022-07-17T01:52:40;10.40;;;5.90;;
68577;SDS011;61668;45.388;11.784;2022-07-17T01:55:08;9.10;;;4.40;;
68577;SDS011;61668;45.388;11.784;2022-07-17T01:57:35;10.90;;;4.70;;
68577;SDS011;61668;45.388;11.784;2022-07-17T02:00:05;9.70;;;4.30;;
68577;SDS011;61668;45.388;11.784;2022-07-17T02:02:33;9.80;;;4.60;;
68577;SDS011;61668;45.388;11.784;2022-07-17T02:05:00;9.10;;;4.60;;
68577;SDS011;61668;45.388;11.784;2022-07-17T02:07:25;8.10;;;4.00;;
68577;SDS011;61668;45.388;11.784;2022-07-17T02:09:52;10.70;;;5.00;;
68577;SDS011;61668;45.388;11.784;2022-07-17T02:12:17;9.30;;;4.40;;
68577;SDS011;61668;45.388;11.784;2022-07-17T02:14:43;10.10;;;4.80;;
68577;SDS011;61668;45.388;11.784;2022-07-17T02:17:09;10.60;;;5.50;;
68577;SDS011;61668;45.388;11.784;2022-07-17T02:19:34;9.90;;;5.50;;
68577;SDS011;61668;45.388;11.784;2022-07-17T02:22:00;10.40;;;4.80;;
68577;SDS011;61668;45.388;11.784;2022-07-17T02:24:25;11.50;;;5.40;;
68577;SDS011;61668;45.388;11.784;2022-07-17T02:26:51;9.50;;;4.60;;
68577;SDS011;61668;45.388;11.784;2022-07-17T02:29:16;9.20;;;4.90;;
68577;SDS011;61668;45.388;11.784;2022-07-17T02:31:42;13.70;;;5.50;;
68577;SDS011;61668;45.388;11.784;2022-07-17T02:34:07;11.70;;;6.00;;
68577;SDS011;61668;45.388;11.784;2022-07-17T02:36:33;10.10;;;5.20;;
68577;SDS011;61668;45.388;11.784;2022-07-17T02:38:58;9.80;;;5.60;;
68577;SDS011;61668;45.388;11.784;2022-07-17T02:41:24;10.00;;;5.10;;
68577;SDS011;61668;45.388;11.784;2022-07-17T02:43:50;11.00;;;5.80;;
68577;SDS011;61668;45.388;11.784;2022-07-17T02:46:15;8.50;;;5.20;;
68577;SDS011;61668;45.388;11.784;2022-07-17T02:48:41;10.90;;;4.70;;
68577;SDS011;61668;45.388;11.784;2022-07-17T02:51:08;9.60;;;5.20;;
68577;SDS011;61668;45.388;11.784;2022-07-17T02:53:34;12.60;;;5.30;;
68577;SDS011;61668;45.388;11.784;2022-07-17T02:56:00;10.10;;;5.30;;
68577;SDS011;61668;45.388;11.784;2022-07-17T02:58:25;9.70;;;5.40;;
68577;SDS011;61668;45.388;11.784;2022-07-17T03:00:51;9.70;;;5.10;;
68577;SDS011;61668;45.388;11.784;2022-07-17T03:03:17;9.20;;;5.10;;
68577;SDS011;61668;45.388;11.784;2022-07-17T03:05:45;10.00;;;5.10;;
68577;SDS011;61668;45.388;11.784;2022-07-17T03:08:11;10.20;;;5.30;;
68577;SDS011;61668;45.388;11.784;2022-07-17T03:10:36;8.70;;;4.80;;
68577;SDS011;61668;45.388;11.784;2022-07-17T03:13:02;8.60;;;4.90;;
68577;SDS011;61668;45.388;11.784;2022-07-17T03:15:27;8.40;;;4.40;;
68577;SDS011;61668;45.388;11.784;2022-07-17T03:17:53;9.50;;;4.50;;
68577;SDS011;61668;45.388;11.784;2022-07-17T03:20:18;8.00;;;3.90;;
68577;SDS011;61668;45.388;11.784;2022-07-17T03:22:44;9.90;;;4.40;;
68577;SDS011;61668;45.388;11.784;2022-07-17T03:25:09;8.80;;;3.80;;
68577;SDS011;61668;45.388;11.784;2022-07-17T03:27:35;8.60;;;3.70;;
68577;SDS011;61668;45.388;11.784;2022-07-17T03:30:01;7.80;;;3.60;;
68577;SDS011;61668;45.388;11.784;2022-07-17T03:32:26;7.90;;;3.50;;
68577;SDS011;61668;45.388;11.784;2022-07-17T03:34:53;7.80;;;3.10;;
68577;SDS011;61668;45.388;11.784;2022-07-17T03:37:18;7.10;;;3.20;;
68577;SDS011;61668;45.388;11.784;2022-07-17T03:39:44;7.30;;;3.20;;
68577;SDS011;61668;45.388;11.784;2022-07-17T03:42:09;8.30;;;3.10;;
68577;SDS011;61668;45.388;11.784;2022-07-17T03:44:35;9.80;;;3.60;;
68577;SDS011;61668;45.388;11.784;2022-07-17T03:47:00;7.90;;;3.70;;
68577;SDS011;61668;45.388;11.784;2022-07-17T03:49:26;9.10;;;3.00;;
68577;SDS011;61668;45.388;11.784;2022-07-17T03:51:51;7.40;;;3.20;;
68577;SDS011;61668;45.388;11.784;2022-07-17T03:54:17;8.70;;;2.90;;
68577;SDS011;61668;45.388;11.784;2022-07-17T03:56:43;7.60;;;2.80;;
68577;SDS011;61668;45.388;11.784;2022-07-17T03:59:08;7.10;;;3.50;;
68577;SDS011;61668;45.388;11.784;2022-07-17T04:01:34;7.90;;;3.10;;
68577;SDS011;61668;45.388;11.784;2022-07-17T04:03:59;7.50;;;2.90;;
68577;SDS011;61668;45.388;11.784;2022-07-17T04:06:25;8.10;;;3.00;;
68577;SDS011;61668;45.388;11.784;2022-07-17T04:08:50;7.10;;;3.00;;
68577;SDS011;61668;45.388;11.784;2022-07-17T04:11:16;8.20;;;3.60;;
68577;SDS011;61668;45.388;11.784;2022-07-17T04:13:41;7.90;;;2.70;;
68577;SDS011;61668;45.388;11.784;2022-07-17T04:16:07;7.70;;;2.80;;
68577;SDS011;61668;45.388;11.784;2022-07-17T04:18:34;6.90;;;2.70;;
68577;SDS011;61668;45.388;11.784;2022-07-17T04:21:05;8.70;;;2.80;;
68577;SDS011;61668;45.388;11.784;2022-07-17T04:23:32;8.10;;;2.80;;
68577;SDS011;61668;45.388;11.784;2022-07-17T04:25:58;7.80;;;2.70;;
68577;SDS011;61668;45.388;11.784;2022-07-17T04:28:23;8.50;;;2.70;;
68577;SDS011;61668;45.388;11.784;2022-07-17T04:30:49;8.10;;;2.70;;
68577;SDS011;61668;45.388;11.784;2022-07-17T04:33:15;7.00;;;2.50;;
68577;SDS011;61668;45.388;11.784;2022-07-17T04:35:41;7.50;;;3.00;;
68577;SDS011;61668;45.388;11.784;2022-07-17T04:38:08;7.70;;;2.70;;
68577;SDS011;61668;45.388;11.784;2022-07-17T04:40:34;8.10;;;3.20;;
68577;SDS011;61668;45.388;11.784;2022-07-17T04:43:02;7.00;;;2.40;;
68577;SDS011;61668;45.388;11.784;2022-07-17T04:45:29;7.60;;;2.80;;
68577;SDS011;61668;45.388;11.784;2022-07-17T04:47:54;6.80;;;2.30;;
68577;SDS011;61668;45.388;11.784;2022-07-17T04:50:20;6.70;;;2.60;;
68577;SDS011;61668;45.388;11.784;2022-07-17T04:52:46;9.20;;;2.40;;
68577;SDS011;61668;45.388;11.784;2022-07-17T04:55:11;7.90;;;2.60;;
68577;SDS011;61668;45.388;11.784;2022-07-17T04:57:37;7.90;;;2.20;;
68577;SDS011;61668;45.388;11.784;2022-07-17T05:00:04;7.30;;;3.00;;
68577;SDS011;61668;45.388;11.784;2022-07-17T05:02:31;6.80;;;2.60;;
68577;SDS011;61668;45.388;11.784;2022-07-17T05:04:57;6.60;;;2.30;;
68577;SDS011;61668;45.388;11.784;2022-07-17T05:07:23;7.70;;;2.80;;
68577;SDS011;61668;45.388;11.784;2022-07-17T05:09:49;6.80;;;2.60;;
68577;SDS011;61668;45.388;11.784;2022-07-17T05:12:15;6.70;;;2.70;;
68577;SDS011;61668;45.388;11.784;2022-07-17T05:14:40;6.50;;;2.10;;
68577;SDS011;61668;45.388;11.784;2022-07-17T05:17:06;7.30;;;2.70;;
68577;SDS011;61668;45.388;11.784;2022-07-17T05:19:32;7.10;;;3.00;;
68577;SDS011;61668;45.388;11.784;2022-07-17T05:21:58;8.10;;;2.20;;
68577;SDS011;61668;45.388;11.784;2022-07-17T05:24:24;6.90;;;2.40;;
68577;SDS011;61668;45.388;11.784;2022-07-17T05:26:50;8.00;;;2.60;;
68577;SDS011;61668;45.388;11.784;2022-07-17T05:29:15;7.80;;;2.30;;
68577;SDS011;61668;45.388;11.784;2022-07-17T05:31:41;7.40;;;2.40;;
68577;SDS011;61668;45.388;11.784;2022-07-17T05:34:06;7.30;;;2.50;;
68577;SDS011;61668;45.388;11.784;2022-07-17T05:36:32;7.50;;;2.80;;
68577;SDS011;61668;45.388;11.784;2022-07-17T05:38:58;6.90;;;2.40;;
68577;SDS011;61668;45.388;11.784;2022-07-17T05:41:23;7.00;;;2.00;;
68577;SDS011;61668;45.388;11.784;2022-07-17T05:43:49;7.80;;;2.80;;
68577;SDS011;61668;45.388;11.784;2022-07-17T05:46:14;7.80;;;2.10;;
68577;SDS011;61668;45.388;11.784;2022-07-17T05:48:40;6.60;;;2.50;;
68577;SDS011;61668;45.388;11.784;2022-07-17T05:51:06;6.30;;;1.70;;
68577;SDS011;61668;45.388;11.784;2022-07-17T05:53:32;7.50;;;2.20;;
68577;SDS011;61668;45.388;11.784;2022-07-17T05:55:57;8.60;;;2.40;;
68577;SDS011;61668;45.388;11.784;2022-07-17T05:58:22;8.10;;;2.70;;
68577;SDS011;61668;45.388;11.784;2022-07-17T06:00:48;7.20;;;2.00;;
68577;SDS011;61668;45.388;11.784;2022-07-17T06:03:14;7.60;;;3.00;;
68577;SDS011;61668;45.388;11.784;2022-07-17T06:05:40;6.70;;;2.20;;
68577;SDS011;61668;45.388;11.784;2022-07-17T06:08:06;7.80;;;2.40;;
68577;SDS011;61668;45.388;11.784;2022-07-17T06:10:32;7.60;;;2.60;;
68577;SDS011;61668;45.388;11.784;2022-07-17T06:12:58;7.30;;;3.00;;
68577;SDS011;61668;45.388;11.784;2022-07-17T06:15:24;6.50;;;2.10;;
68577;SDS011;61668;45.388;11.784;2022-07-17T06:17:50;7.40;;;2.10;;
68577;SDS011;61668;45.388;11.784;2022-07-17T06:20:17;6.20;;;1.90;;
68577;SDS011;61668;45.388;11.784;2022-07-17T06:22:44;6.90;;;2.30;;
68577;SDS011;61668;45.388;11.784;2022-07-17T06:25:11;8.20;;;2.50;;
68577;SDS011;61668;45.388;11.784;2022-07-17T06:27:41;6.60;;;2.30;;
68577;SDS011;61668;45.388;11.784;2022-07-17T06:30:12;8.80;;;2.50;;
68577;SDS011;61668;45.388;11.784;2022-07-17T06:32:39;6.80;;;2.20;;
68577;SDS011;61668;45.388;11.784;2022-07-17T06:35:06;6.20;;;2.00;;
68577;SDS011;61668;45.388;11.784;2022-07-17T06:37:32;7.10;;;2.00;;
68577;SDS011;61668;45.388;11.784;2022-07-17T06:39:58;6.90;;;2.10;;
68577;SDS011;61668;45.388;11.784;2022-07-17T06:42:23;7.20;;;2.40;;
68577;SDS011;61668;45.388;11.784;2022-07-17T06:44:49;6.60;;;2.10;;
68577;SDS011;61668;45.388;11.784;2022-07-17T06:47:14;7.70;;;2.00;;
68577;SDS011;61668;45.388;11.784;2022-07-17T06:49:40;7.90;;;2.60;;
68577;SDS011;61668;45.388;11.784;2022-07-17T06:52:06;8.20;;;2.30;;
68577;SDS011;61668;45.388;11.784;2022-07-17T06:54:31;7.50;;;2.40;;
68577;SDS011;61668;45.388;11.784;2022-07-17T06:56:57;9.20;;;2.90;;
68577;SDS011;61668;45.388;11.784;2022-07-17T06:59:22;6.90;;;2.00;;
68577;SDS011;61668;45.388;11.784;2022-07-17T07:01:48;7.50;;;2.30;;
68577;SDS011;61668;45.388;11.784;2022-07-17T07:04:14;6.10;;;1.90;;
68577;SDS011;61668;45.388;11.784;2022-07-17T07:06:39;6.00;;;1.70;;
68577;SDS011;61668;45.388;11.784;2022-07-17T07:09:05;6.70;;;2.30;;
68577;SDS011;61668;45.388;11.784;2022-07-17T07:11:31;9.60;;;2.90;;
68577;SDS011;61668;45.388;11.784;2022-07-17T07:13:57;7.70;;;2.40;;
68577;SDS011;61668;45.388;11.784;2022-07-17T07:16:22;6.40;;;2.10;;
68577;SDS011;61668;45.388;11.784;2022-07-17T07:18:48;6.90;;;2.00;;
68577;SDS011;61668;45.388;11.784;2022-07-17T07:21:13;6.20;;;2.10;;
68577;SDS011;61668;45.388;11.784;2022-07-17T07:23:39;7.20;;;2.20;;
68577;SDS011;61668;45.388;11.784;2022-07-17T07:26:05;6.30;;;2.20;;
68577;SDS011;61668;45.388;11.784;2022-07-17T07:28:31;6.70;;;1.50;;
68577;SDS011;61668;45.388;11.784;2022-07-17T07:30:56;7.40;;;2.00;;
68577;SDS011;61668;45.388;11.784;2022-07-17T07:33:22;7.10;;;2.20;;
68577;SDS011;61668;45.388;11.784;2022-07-17T07:35:47;9.00;;;2.00;;
68577;SDS011;61668;45.388;11.784;2022-07-17T07:38:13;6.40;;;1.70;;
68577;SDS011;61668;45.388;11.784;2022-07-17T07:40:38;6.90;;;1.90;;
68577;SDS011;61668;45.388;11.784;2022-07-17T07:43:04;6.60;;;2.10;;
68577;SDS011;61668;45.388;11.784;2022-07-17T07:45:30;8.00;;;1.90;;
68577;SDS011;61668;45.388;11.784;2022-07-17T07:47:59;6.70;;;2.10;;
68577;SDS011;61668;45.388;11.784;2022-07-17T07:50:26;7.10;;;1.90;;
68577;SDS011;61668;45.388;11.784;2022-07-17T07:52:54;6.50;;;1.60;;
68577;SDS011;61668;45.388;11.784;2022-07-17T07:55:20;6.60;;;1.30;;
68577;SDS011;61668;45.388;11.784;2022-07-17T07:57:50;7.80;;;1.60;;
68577;SDS011;61668;45.388;11.784;2022-07-17T08:00:26;6.40;;;2.10;;
68577;SDS011;61668;45.388;11.784;2022-07-17T08:02:52;7.60;;;2.30;;
68577;SDS011;61668;45.388;11.784;2022-07-17T08:05:17;6.00;;;1.50;;
68577;SDS011;61668;45.388;11.784;2022-07-17T08:07:43;6.70;;;1.90;;
68577;SDS011;61668;45.388;11.784;2022-07-17T08:10:08;6.20;;;1.70;;
68577;SDS011;61668;45.388;11.784;2022-07-17T08:12:34;6.40;;;2.30;;
68577;SDS011;61668;45.388;11.784;2022-07-17T08:14:59;7.20;;;2.60;;
68577;SDS011;61668;45.388;11.784;2022-07-17T08:17:25;6.20;;;2.30;;
68577;SDS011;61668;45.388;11.784;2022-07-17T08:19:50;8.50;;;2.60;;
68577;SDS011;61668;45.388;11.784;2022-07-17T08:22:16;7.70;;;2.10;;
68577;SDS011;61668;45.388;11.784;2022-07-17T08:24:41;8.50;;;2.50;;
68577;SDS011;61668;45.388;11.784;2022-07-17T08:27:07;6.80;;;2.00;;
68577;SDS011;61668;45.388;11.784;2022-07-17T08:29:32;7.10;;;2.10;;
68577;SDS011;61668;45.388;11.784;2022-07-17T08:31:58;6.40;;;1.50;;
68577;SDS011;61668;45.388;11.784;2022-07-17T08:34:23;6.50;;;2.40;;
68577;SDS011;61668;45.388;11.784;2022-07-17T08:36:49;6.50;;;2.50;;
68577;SDS011;61668;45.388;11.784;2022-07-17T08:39:14;7.00;;;2.00;;
68577;SDS011;61668;45.388;11.784;2022-07-17T08:41:40;6.10;;;1.80;;
68577;SDS011;61668;45.388;11.784;2022-07-17T08:44:06;6.80;;;2.30;;
68577;SDS011;61668;45.388;11.784;2022-07-17T08:46:35;6.60;;;1.80;;
68577;SDS011;61668;45.388;11.784;2022-07-17T08:49:02;6.30;;;2.20;;
68577;SDS011;61668;45.388;11.784;2022-07-17T08:51:30;7.20;;;1.90;;
68577;SDS011;61668;45.388;11.784;2022-07-17T08:53:57;8.90;;;2.50;;
68577;SDS011;61668;45.388;11.784;2022-07-17T08:56:23;6.50;;;2.10;;
68577;SDS011;61668;45.388;11.784;2022-07-17T08:58:50;8.00;;;2.10;;
68577;SDS011;61668;45.388;11.784;2022-07-17T09:01:17;7.80;;;2.20;;
68577;SDS011;61668;45.388;11.784;2022-07-17T09:03:57;7.80;;;2.50;;
68577;SDS011;61668;45.388;11.784;2022-07-17T09:06:34;7.00;;;1.80;;
68577;SDS011;61668;45.388;11.784;2022-07-17T09:09:06;7.00;;;1.90;;
68577;SDS011;61668;45.388;11.784;2022-07-17T09:11:49;7.30;;;2.20;;
68577;SDS011;61668;45.388;11.784;2022-07-17T09:14:17;6.00;;;2.20;;
68577;SDS011;61668;45.388;11.784;2022-07-17T09:16:58;7.60;;;2.20;;
68577;SDS011;61668;45.388;11.784;2022-07-17T09:19:31;7.20;;;2.60;;
68577;SDS011;61668;45.388;11.784;2022-07-17T09:22:07;6.60;;;2.20;;
68577;SDS011;61668;45.388;11.784;2022-07-17T09:24:50;6.30;;;2.20;;
68577;SDS011;61668;45.388;11.784;2022-07-17T09:29:54;7.30;;;2.50;;
68577;SDS011;61668;45.388;11.784;2022-07-17T09:32:23;7.00;;;2.00;;
68577;SDS011;61668;45.388;11.784;2022-07-17T09:34:54;6.90;;;2.20;;
68577;SDS011;61668;45.388;11.784;2022-07-17T09:37:26;7.40;;;1.90;;
68577;SDS011;61668;45.388;11.784;2022-07-17T09:39:54;5.90;;;2.20;;
68577;SDS011;61668;45.388;11.784;2022-07-17T09:42:29;7.10;;;2.00;;
68577;SDS011;61668;45.388;11.784;2022-07-17T09:45:09;6.50;;;2.00;;
68577;SDS011;61668;45.388;11.784;2022-07-17T09:47:38;6.60;;;2.10;;
68577;SDS011;61668;45.388;11.784;2022-07-17T09:50:07;5.80;;;2.00;;
68577;SDS011;61668;45.388;11.784;2022-07-17T09:52:35;5.40;;;1.80;;
68577;SDS011;61668;45.388;11.784;2022-07-17T09:55:03;6.50;;;2.10;;
68577;SDS011;61668;45.388;11.784;2022-07-17T09:57:34;8.20;;;1.80;;
68577;SDS011;61668;45.388;11.784;2022-07-17T10:00:05;6.30;;;2.50;;
68577;SDS011;61668;45.388;11.784;2022-07-17T10:02:44;6.50;;;1.80;;
68577;SDS011;61668;45.388;11.784;2022-07-17T10:05:11;6.20;;;1.70;;
68577;SDS011;61668;45.388;11.784;2022-07-17T10:07:41;6.10;;;1.90;;
68577;SDS011;61668;45.388;11.784;2022-07-17T10:10:09;7.10;;;2.50;;
68577;SDS011;61668;45.388;11.784;2022-07-17T10:12:38;6.80;;;1.60;;
68577;SDS011;61668;45.388;11.784;2022-07-17T10:15:06;7.80;;;2.20;;
68577;SDS011;61668;45.388;11.784;2022-07-17T10:17:33;11.30;;;2.70;;
68577;SDS011;61668;45.388;11.784;2022-07-17T10:19:58;6.10;;;2.10;;
68577;SDS011;61668;45.388;11.784;2022-07-17T10:22:26;6.40;;;1.90;;
68577;SDS011;61668;45.388;11.784;2022-07-17T10:24:54;6.40;;;2.20;;
68577;SDS011;61668;45.388;11.784;2022-07-17T10:27:23;7.30;;;1.70;;
68577;SDS011;61668;45.388;11.784;2022-07-17T10:32:28;6.10;;;2.30;;
68577;SDS011;61668;45.388;11.784;2022-07-17T10:35:05;6.70;;;2.10;;
68577;SDS011;61668;45.388;11.784;2022-07-17T10:42:38;7.40;;;2.10;;
68577;SDS011;61668;45.388;11.784;2022-07-17T10:55:46;6.10;;;1.90;;
68577;SDS011;61668;45.388;11.784;2022-07-17T11:01:09;7.30;;;2.40;;
68577;SDS011;61668;45.388;11.784;2022-07-17T11:03:44;7.00;;;2.20;;
68577;SDS011;61668;45.388;11.784;2022-07-17T11:06:29;6.10;;;1.90;;
68577;SDS011;61668;45.388;11.784;2022-07-17T11:08:59;5.50;;;1.60;;
68577;SDS011;61668;45.388;11.784;2022-07-17T11:11:50;6.70;;;2.60;;
68577;SDS011;61668;45.388;11.784;2022-07-17T11:14:17;7.30;;;2.00;;
68577;SDS011;61668;45.388;11.784;2022-07-17T11:16:54;7.70;;;2.40;;
68577;SDS011;61668;45.388;11.784;2022-07-17T11:19:35;5.60;;;1.90;;
68577;SDS011;61668;45.388;11.784;2022-07-17T11:22:11;6.90;;;2.50;;
68577;SDS011;61668;45.388;11.784;2022-07-17T11:24:41;7.00;;;2.50;;
68577;SDS011;61668;45.388;11.784;2022-07-17T11:27:12;6.40;;;2.40;;
68577;SDS011;61668;45.388;11.784;2022-07-17T11:29:43;5.80;;;1.80;;
68577;SDS011;61668;45.388;11.784;2022-07-17T11:32:09;6.70;;;2.50;;
68577;SDS011;61668;45.388;11.784;2022-07-17T11:34:34;6.70;;;2.50;;
68577;SDS011;61668;45.388;11.784;2022-07-17T11:37:02;6.40;;;2.10;;
68577;SDS011;61668;45.388;11.784;2022-07-17T11:39:41;7.20;;;2.60;;
68577;SDS011;61668;45.388;11.784;2022-07-17T11:42:17;7.30;;;1.90;;
68577;SDS011;61668;45.388;11.784;2022-07-17T11:44:44;7.00;;;1.80;;
68577;SDS011;61668;45.388;11.784;2022-07-17T11:47:11;6.30;;;2.20;;
68577;SDS011;61668;45.388;11.784;2022-07-17T11:49:39;6.50;;;2.20;;
68577;SDS011;61668;45.388;11.784;2022-07-17T11:52:13;6.30;;;2.10;;
68577;SDS011;61668;45.388;11.784;2022-07-17T11:55:06;7.80;;;1.80;;
68577;SDS011;61668;45.388;11.784;2022-07-17T11:57:42;7.00;;;2.10;;
68577;SDS011;61668;45.388;11.784;2022-07-17T12:00:12;8.10;;;3.10;;
68577;SDS011;61668;45.388;11.784;2022-07-17T12:02:39;6.30;;;2.30;;
68577;SDS011;61668;45.388;11.784;2022-07-17T12:05:04;7.20;;;1.90;;
68577;SDS011;61668;45.388;11.784;2022-07-17T12:07:41;5.70;;;2.00;;
68577;SDS011;61668;45.388;11.784;2022-07-17T12:10:16;6.70;;;2.30;;
68577;SDS011;61668;45.388;11.784;2022-07-17T12:13:06;6.40;;;1.60;;
68577;SDS011;61668;45.388;11.784;2022-07-17T12:15:44;7.30;;;2.10;;
68577;SDS011;61668;45.388;11.784;2022-07-17T12:18:29;7.10;;;2.20;;
68577;SDS011;61668;45.388;11.784;2022-07-17T12:20:57;6.80;;;1.70;;
68577;SDS011;61668;45.388;11.784;2022-07-17T12:26:16;8.20;;;2.40;;
68577;SDS011;61668;45.388;11.784;2022-07-17T12:28:44;9.70;;;2.50;;
68577;SDS011;61668;45.388;11.784;2022-07-17T12:31:11;8.20;;;2.30;;
68577;SDS011;61668;45.388;11.784;2022-07-17T12:33:37;7.50;;;2.10;;
68577;SDS011;61668;45.388;11.784;2022-07-17T12:36:03;6.80;;;1.80;;
68577;SDS011;61668;45.388;11.784;2022-07-17T12:38:29;9.10;;;2.40;;
68577;SDS011;61668;45.388;11.784;2022-07-17T12:40:55;5.60;;;2.00;;
68577;SDS011;61668;45.388;11.784;2022-07-17T12:43:21;7.50;;;2.70;;
68577;SDS011;61668;45.388;11.784;2022-07-17T12:45:46;9.00;;;2.50;;
68577;SDS011;61668;45.388;11.784;2022-07-17T12:48:12;8.00;;;2.20;;
68577;SDS011;61668;45.388;11.784;2022-07-17T12:50:39;6.00;;;2.10;;
68577;SDS011;61668;45.388;11.784;2022-07-17T12:53:05;6.50;;;2.00;;
68577;SDS011;61668;45.388;11.784;2022-07-17T12:55:32;7.50;;;1.60;;
68577;SDS011;61668;45.388;11.784;2022-07-17T12:57:58;7.10;;;1.90;;
68577;SDS011;61668;45.388;11.784;2022-07-17T13:00:24;7.90;;;2.10;;
68577;SDS011;61668;45.388;11.784;2022-07-17T13:02:49;6.60;;;2.60;;
68577;SDS011;61668;45.388;11.784;2022-07-17T13:05:15;7.00;;;2.30;;
68577;SDS011;61668;45.388;11.784;2022-07-17T13:07:41;7.20;;;2.30;;
68577;SDS011;61668;45.388;11.784;2022-07-17T13:10:07;6.70;;;1.80;;
68577;SDS011;61668;45.388;11.784;2022-07-17T13:12:35;7.20;;;1.90;;
68577;SDS011;61668;45.388;11.784;2022-07-17T13:15:00;5.70;;;1.70;;
68577;SDS011;61668;45.388;11.784;2022-07-17T13:17:28;6.10;;;2.00;;
68577;SDS011;61668;45.388;11.784;2022-07-17T13:19:54;7.40;;;1.60;;
68577;SDS011;61668;45.388;11.784;2022-07-17T13:22:20;7.70;;;1.70;;
68577;SDS011;61668;45.388;11.784;2022-07-17T13:24:45;6.20;;;1.90;;
68577;SDS011;61668;45.388;11.784;2022-07-17T13:27:11;7.30;;;2.40;;
68577;SDS011;61668;45.388;11.784;2022-07-17T13:29:36;5.70;;;1.90;;
68577;SDS011;61668;45.388;11.784;2022-07-17T13:32:03;6.80;;;1.90;;
68577;SDS011;61668;45.388;11.784;2022-07-17T13:34:29;6.90;;;2.20;;
68577;SDS011;61668;45.388;11.784;2022-07-17T13:36:55;5.90;;;1.70;;
68577;SDS011;61668;45.388;11.784;2022-07-17T13:39:20;5.90;;;1.90;;
68577;SDS011;61668;45.388;11.784;2022-07-17T13:41:46;6.10;;;2.60;;
68577;SDS011;61668;45.388;11.784;2022-07-17T13:44:12;6.10;;;2.10;;
68577;SDS011;61668;45.388;11.784;2022-07-17T13:46:38;6.40;;;1.70;;
68577;SDS011;61668;45.388;11.784;2022-07-17T13:49:04;5.50;;;1.80;;
68577;SDS011;61668;45.388;11.784;2022-07-17T13:51:29;5.70;;;1.80;;
68577;SDS011;61668;45.388;11.784;2022-07-17T13:53:56;6.70;;;1.70;;
68577;SDS011;61668;45.388;11.784;2022-07-17T13:56:22;6.40;;;2.40;;
68577;SDS011;61668;45.388;11.784;2022-07-17T13:58:48;6.60;;;1.80;;
68577;SDS011;61668;45.388;11.784;2022-07-17T14:01:14;7.00;;;1.80;;
68577;SDS011;61668;45.388;11.784;2022-07-17T14:03:40;6.50;;;2.30;;
68577;SDS011;61668;45.388;11.784;2022-07-17T14:06:06;7.10;;;2.50;;
68577;SDS011;61668;45.388;11.784;2022-07-17T14:08:34;6.20;;;1.80;;
68577;SDS011;61668;45.388;11.784;2022-07-17T14:11:00;5.90;;;1.30;;
68577;SDS011;61668;45.388;11.784;2022-07-17T14:13:26;6.60;;;1.60;;
68577;SDS011;61668;45.388;11.784;2022-07-17T14:15:52;6.10;;;2.40;;
68577;SDS011;61668;45.388;11.784;2022-07-17T14:18:18;7.00;;;1.80;;
68577;SDS011;61668;45.388;11.784;2022-07-17T14:20:43;6.40;;;1.90;;
68577;SDS011;61668;45.388;11.784;2022-07-17T14:23:09;5.90;;;1.70;;
68577;SDS011;61668;45.388;11.784;2022-07-17T14:25:36;5.70;;;2.30;;
68577;SDS011;61668;45.388;11.784;2022-07-17T14:28:01;7.40;;;2.60;;
68577;SDS011;61668;45.388;11.784;2022-07-17T14:30:27;6.40;;;2.10;;
68577;SDS011;61668;45.388;11.784;2022-07-17T14:32:52;5.50;;;1.90;;
68577;SDS011;61668;45.388;11.784;2022-07-17T14:35:18;5.60;;;1.60;;
68577;SDS011;61668;45.388;11.784;2022-07-17T14:37:44;7.20;;;1.60;;
68577;SDS011;61668;45.388;11.784;2022-07-17T14:40:13;6.20;;;1.90;;
68577;SDS011;61668;45.388;11.784;2022-07-17T14:42:39;6.40;;;2.00;;
68577;SDS011;61668;45.388;11.784;2022-07-17T14:45:06;5.30;;;1.70;;
68577;SDS011;61668;45.388;11.784;2022-07-17T14:47:32;6.00;;;2.10;;
68577;SDS011;61668;45.388;11.784;2022-07-17T14:49:58;5.90;;;2.00;;
68577;SDS011;61668;45.388;11.784;2022-07-17T14:52:23;6.40;;;2.60;;
68577;SDS011;61668;45.388;11.784;2022-07-17T14:54:49;5.50;;;1.70;;
68577;SDS011;61668;45.388;11.784;2022-07-17T14:57:14;5.20;;;2.00;;
68577;SDS011;61668;45.388;11.784;2022-07-17T14:59:40;8.30;;;2.10;;